sensor_id;sensor_type;location;lat;lon;timestamp;temperature;humidity
24384;DHT22;12504;52.870;8.798;2023-08-01T00:00:51;16.20;99.90
24384;DHT22;12504;52.870;8.798;2023-08-01T00:03:21;16.20;99.90
24384;DHT22;12504;52.870;8.798;2023-08-01T00:05:50;16.20;99.90
24384;DHT22;12504;52.870;8.798;2023-08-01T00:08:20;16.20;99.90
24384;DHT22;12504;52.870;8.798;2023-08-01T00:10:53;16.20;99.90
24384;DHT22;12504;52.870;8.798;2023-08-01T00:13:23;16.20;99.90
24384;DHT22;12504;52.870;8.798;2023-08-01T00:15:56;16.20;99.90
24384;DHT22;12504;52.870;8.798;2023-08-01T00:18:25;16.30;99.90
24384;DHT22;12504;52.870;8.798;2023-08-01T00:20:55;16.30;99.90
24384;DHT22;12504;52.870;8.798;2023-08-01T00:23:25;16.30;99.90
24384;DHT22;12504;52.870;8.798;2023-08-01T00:25:55;16.20;99.90
24384;DHT22;12504;52.870;8.798;2023-08-01T00:28:25;16.20;99.90
24384;DHT22;12504;52.870;8.798;2023-08-01T00:31:09;16.20;99.90
24384;DHT22;12504;52.870;8.798;2023-08-01T00:33:43;16.20;99.90
24384;DHT22;12504;52.870;8.798;2023-08-01T00:36:14;16.20;99.90
24384;DHT22;12504;52.870;8.798;2023-08-01T00:38:47;16.30;99.90
24384;DHT22;12504;52.870;8.798;2023-08-01T00:41:18;16.30;99.90
24384;DHT22;12504;52.870;8.798;2023-08-01T00:43:47;16.20;99.90
24384;DHT22;12504;52.870;8.798;2023-08-01T00:46:13;16.20;99.90
24384;DHT22;12504;52.870;8.798;2023-08-01T00:48:42;16.10;99.90
24384;DHT22;12504;52.870;8.798;2023-08-01T00:51:09;16.20;99.90
24384;DHT22;12504;52.870;8.798;2023-08-01T00:53:36;16.20;99.90
24384;DHT22;12504;52.870;8.798;2023-08-01T00:56:02;16.20;99.90
24384;DHT22;12504;52.870;8.798;2023-08-01T00:58:29;16.20;99.90
24384;DHT22;12504;52.870;8.798;2023-08-01T01:00:58;16.20;99.90
24384;DHT22;12504;52.870;8.798;2023-08-01T01:03:25;16.20;99.90
24384;DHT22;12504;52.870;8.798;2023-08-01T01:08:51;16.10;99.90
24384;DHT22;12504;52.870;8.798;2023-08-01T01:11:24;16.10;99.90
24384;DHT22;12504;52.870;8.798;2023-08-01T01:13:55;16.10;99.90
24384;DHT22;12504;52.870;8.798;2023-08-01T01:16:21;16.10;99.90
24384;DHT22;12504;52.870;8.798;2023-08-01T01:18:47;16.00;99.90
24384;DHT22;12504;52.870;8.798;2023-08-01T01:21:13;16.10;99.90
24384;DHT22;12504;52.870;8.798;2023-08-01T01:23:41;16.10;99.90
24384;DHT22;12504;52.870;8.798;2023-08-01T01:26:11;16.00;99.90
24384;DHT22;12504;52.870;8.798;2023-08-01T01:28:37;16.00;99.90
24384;DHT22;12504;52.870;8.798;2023-08-01T01:31:04;16.00;99.90
24384;DHT22;12504;52.870;8.798;2023-08-01T01:33:30;16.00;99.90
24384;DHT22;12504;52.870;8.798;2023-08-01T01:36:05;16.00;99.90
24384;DHT22;12504;52.870;8.798;2023-08-01T01:38:31;16.00;99.90
24384;DHT22;12504;52.870;8.798;2023-08-01T01:40:58;16.00;99.90
24384;DHT22;12504;52.870;8.798;2023-08-01T01:43:27;16.00;99.90
24384;DHT22;12504;52.870;8.798;2023-08-01T01:45:53;16.00;99.90
24384;DHT22;12504;52.870;8.798;2023-08-01T01:48:22;16.00;99.90
24384;DHT22;12504;52.870;8.798;2023-08-01T01:50:50;16.00;99.90
24384;DHT22;12504;52.870;8.798;2023-08-01T01:53:21;16.00;99.90
24384;DHT22;12504;52.870;8.798;2023-08-01T01:55:53;16.00;99.90
24384;DHT22;12504;52.870;8.798;2023-08-01T01:58:25;16.00;99.90
24384;DHT22;12504;52.870;8.798;2023-08-01T02:00:51;16.00;99.90
24384;DHT22;12504;52.870;8.798;2023-08-01T02:03:17;16.00;99.90
24384;DHT22;12504;52.870;8.798;2023-08-01T02:05:47;15.90;99.90
24384;DHT22;12504;52.870;8.798;2023-08-01T02:08:14;16.00;99.90
24384;DHT22;12504;52.870;8.798;2023-08-01T02:10:42;16.00;99.90
24384;DHT22;12504;52.870;8.798;2023-08-01T02:13:11;15.90;99.90
24384;DHT22;12504;52.870;8.798;2023-08-01T02:15:40;15.90;99.90
24384;DHT22;12504;52.870;8.798;2023-08-01T02:18:07;15.90;99.90
24384;DHT22;12504;52.870;8.798;2023-08-01T02:20:33;15.90;99.90
24384;DHT22;12504;52.870;8.798;2023-08-01T02:22:59;15.90;99.90
24384;DHT22;12504;52.870;8.798;2023-08-01T02:25:28;15.90;99.90
24384;DHT22;12504;52.870;8.798;2023-08-01T02:27:54;15.90;99.90
24384;DHT22;12504;52.870;8.798;2023-08-01T02:30:20;15.90;99.90
24384;DHT22;12504;52.870;8.798;2023-08-01T02:32:46;15.90;99.90
24384;DHT22;12504;52.870;8.798;2023-08-01T02:35:13;15.90;99.90
24384;DHT22;12504;52.870;8.798;2023-08-01T02:37:42;15.90;99.90
24384;DHT22;12504;52.870;8.798;2023-08-01T02:40:13;15.90;99.90
24384;DHT22;12504;52.870;8.798;2023-08-01T02:42:39;15.80;99.90
24384;DHT22;12504;52.870;8.798;2023-08-01T02:45:14;15.90;99.90
24384;DHT22;12504;52.870;8.798;2023-08-01T02:47:43;15.80;99.90
24384;DHT22;12504;52.870;8.798;2023-08-01T02:50:09;15.80;99.90
24384;DHT22;12504;52.870;8.798;2023-08-01T02:52:35;15.80;99.90
24384;DHT22;12504;52.870;8.798;2023-08-01T02:55:01;15.80;99.90
24384;DHT22;12504;52.870;8.798;2023-08-01T02:57:34;15.70;99.90
24384;DHT22;12504;52.870;8.798;2023-08-01T03:00:07;15.70;99.90
24384;DHT22;12504;52.870;8.798;2023-08-01T03:02:38;15.70;99.90
24384;DHT22;12504;52.870;8.798;2023-08-01T03:05:09;15.60;99.90
24384;DHT22;12504;52.870;8.798;2023-08-01T03:07:36;15.50;99.90
24384;DHT22;12504;52.870;8.798;2023-08-01T03:10:05;15.50;99.90
24384;DHT22;12504;52.870;8.798;2023-08-01T03:12:34;15.60;99.90
24384;DHT22;12504;52.870;8.798;2023-08-01T03:15:01;15.60;99.90
24384;DHT22;12504;52.870;8.798;2023-08-01T03:17:28;15.70;99.90
24384;DHT22;12504;52.870;8.798;2023-08-01T03:19:54;15.70;99.90
24384;DHT22;12504;52.870;8.798;2023-08-01T03:22:20;15.70;99.90
24384;DHT22;12504;52.870;8.798;2023-08-01T03:24:47;15.70;99.90
24384;DHT22;12504;52.870;8.798;2023-08-01T03:27:14;15.70;99.90
24384;DHT22;12504;52.870;8.798;2023-08-01T03:29:40;15.70;99.90
24384;DHT22;12504;52.870;8.798;2023-08-01T03:32:07;15.70;99.90
24384;DHT22;12504;52.870;8.798;2023-08-01T03:34:37;15.70;99.90
24384;DHT22;12504;52.870;8.798;2023-08-01T03:37:12;15.70;99.90
24384;DHT22;12504;52.870;8.798;2023-08-01T03:39:41;15.70;99.90
24384;DHT22;12504;52.870;8.798;2023-08-01T03:42:11;15.70;99.90
24384;DHT22;12504;52.870;8.798;2023-08-01T03:44:42;15.70;99.90
24384;DHT22;12504;52.870;8.798;2023-08-01T03:47:08;15.70;99.90
24384;DHT22;12504;52.870;8.798;2023-08-01T03:49:34;15.70;99.90
24384;DHT22;12504;52.870;8.798;2023-08-01T03:52:01;15.70;99.90
24384;DHT22;12504;52.870;8.798;2023-08-01T03:54:27;15.70;99.90
24384;DHT22;12504;52.870;8.798;2023-08-01T03:56:56;15.70;99.90
24384;DHT22;12504;52.870;8.798;2023-08-01T03:59:28;15.60;99.90
24384;DHT22;12504;52.870;8.798;2023-08-01T04:01:55;15.60;99.90
24384;DHT22;12504;52.870;8.798;2023-08-01T04:04:23;15.60;99.90
24384;DHT22;12504;52.870;8.798;2023-08-01T04:06:53;15.60;99.90
24384;DHT22;12504;52.870;8.798;2023-08-01T04:09:25;15.60;99.90
24384;DHT22;12504;52.870;8.798;2023-08-01T04:11:56;15.60;99.90
24384;DHT22;12504;52.870;8.798;2023-08-01T04:14:27;15.70;99.90
24384;DHT22;12504;52.870;8.798;2023-08-01T04:16:59;15.60;99.90
24384;DHT22;12504;52.870;8.798;2023-08-01T04:19:31;15.70;99.90
24384;DHT22;12504;52.870;8.798;2023-08-01T04:22:02;15.70;99.90
24384;DHT22;12504;52.870;8.798;2023-08-01T04:24:34;15.60;99.90
24384;DHT22;12504;52.870;8.798;2023-08-01T04:27:05;15.70;99.90
24384;DHT22;12504;52.870;8.798;2023-08-01T04:29:37;15.70;99.90
24384;DHT22;12504;52.870;8.798;2023-08-01T04:32:10;15.70;99.90
24384;DHT22;12504;52.870;8.798;2023-08-01T04:34:43;15.60;99.90
24384;DHT22;12504;52.870;8.798;2023-08-01T04:37:14;15.60;99.90
24384;DHT22;12504;52.870;8.798;2023-08-01T04:39:44;15.60;99.90
24384;DHT22;12504;52.870;8.798;2023-08-01T04:42:15;15.70;99.90
24384;DHT22;12504;52.870;8.798;2023-08-01T04:44:46;15.60;99.90
24384;DHT22;12504;52.870;8.798;2023-08-01T04:47:16;15.60;99.90
24384;DHT22;12504;52.870;8.798;2023-08-01T04:49:47;15.70;99.90
24384;DHT22;12504;52.870;8.798;2023-08-01T04:52:17;15.70;99.90
24384;DHT22;12504;52.870;8.798;2023-08-01T04:54:45;15.70;99.90
24384;DHT22;12504;52.870;8.798;2023-08-01T04:57:15;15.70;99.90
24384;DHT22;12504;52.870;8.798;2023-08-01T04:59:46;15.70;99.90
24384;DHT22;12504;52.870;8.798;2023-08-01T05:02:17;15.70;99.90
24384;DHT22;12504;52.870;8.798;2023-08-01T05:04:48;15.70;99.90
24384;DHT22;12504;52.870;8.798;2023-08-01T05:07:18;15.70;99.90
24384;DHT22;12504;52.870;8.798;2023-08-01T05:09:47;15.70;99.90
24384;DHT22;12504;52.870;8.798;2023-08-01T05:12:21;15.80;99.90
24384;DHT22;12504;52.870;8.798;2023-08-01T05:14:52;15.80;99.90
24384;DHT22;12504;52.870;8.798;2023-08-01T05:17:23;15.80;99.90
24384;DHT22;12504;52.870;8.798;2023-08-01T05:19:52;15.80;99.90
24384;DHT22;12504;52.870;8.798;2023-08-01T05:22:19;15.90;99.90
24384;DHT22;12504;52.870;8.798;2023-08-01T05:24:51;15.90;99.90
24384;DHT22;12504;52.870;8.798;2023-08-01T05:27:21;15.90;99.90
24384;DHT22;12504;52.870;8.798;2023-08-01T05:29:53;15.90;99.90
24384;DHT22;12504;52.870;8.798;2023-08-01T05:32:23;16.00;99.90
24384;DHT22;12504;52.870;8.798;2023-08-01T05:34:52;16.00;99.90
24384;DHT22;12504;52.870;8.798;2023-08-01T05:37:22;16.10;99.90
24384;DHT22;12504;52.870;8.798;2023-08-01T05:39:53;16.10;99.90
24384;DHT22;12504;52.870;8.798;2023-08-01T05:42:22;16.10;99.90
24384;DHT22;12504;52.870;8.798;2023-08-01T05:44:51;16.10;99.90
24384;DHT22;12504;52.870;8.798;2023-08-01T05:47:20;16.10;99.90
24384;DHT22;12504;52.870;8.798;2023-08-01T05:49:50;16.10;99.90
24384;DHT22;12504;52.870;8.798;2023-08-01T05:52:19;16.10;99.90
24384;DHT22;12504;52.870;8.798;2023-08-01T05:54:46;16.10;99.90
24384;DHT22;12504;52.870;8.798;2023-08-01T05:57:12;16.20;99.90
24384;DHT22;12504;52.870;8.798;2023-08-01T05:59:41;16.20;99.90
24384;DHT22;12504;52.870;8.798;2023-08-01T06:02:10;16.30;99.90
24384;DHT22;12504;52.870;8.798;2023-08-01T06:04:36;16.20;99.90
24384;DHT22;12504;52.870;8.798;2023-08-01T06:07:04;16.30;99.90
24384;DHT22;12504;52.870;8.798;2023-08-01T06:09:31;16.30;99.90
24384;DHT22;12504;52.870;8.798;2023-08-01T06:11:57;16.30;99.90
24384;DHT22;12504;52.870;8.798;2023-08-01T06:14:29;16.30;99.90
24384;DHT22;12504;52.870;8.798;2023-08-01T06:16:55;16.30;99.90
24384;DHT22;12504;52.870;8.798;2023-08-01T06:19:24;16.30;99.90
24384;DHT22;12504;52.870;8.798;2023-08-01T06:21:49;16.20;99.90
24384;DHT22;12504;52.870;8.798;2023-08-01T06:24:16;16.30;99.90
24384;DHT22;12504;52.870;8.798;2023-08-01T06:26:45;16.20;99.90
24384;DHT22;12504;52.870;8.798;2023-08-01T06:29:15;16.20;99.90
24384;DHT22;12504;52.870;8.798;2023-08-01T06:31:41;16.20;99.90
24384;DHT22;12504;52.870;8.798;2023-08-01T06:34:11;16.20;99.90
24384;DHT22;12504;52.870;8.798;2023-08-01T06:36:40;16.20;99.90
24384;DHT22;12504;52.870;8.798;2023-08-01T06:39:13;16.20;99.90
24384;DHT22;12504;52.870;8.798;2023-08-01T06:41:42;16.20;99.90
24384;DHT22;12504;52.870;8.798;2023-08-01T06:44:10;16.30;99.90
24384;DHT22;12504;52.870;8.798;2023-08-01T06:46:42;16.30;99.90
24384;DHT22;12504;52.870;8.798;2023-08-01T06:49:13;16.30;99.90
24384;DHT22;12504;52.870;8.798;2023-08-01T06:51:43;16.30;99.90
24384;DHT22;12504;52.870;8.798;2023-08-01T06:54:14;16.30;99.90
24384;DHT22;12504;52.870;8.798;2023-08-01T06:56:46;16.20;99.90
24384;DHT22;12504;52.870;8.798;2023-08-01T06:59:18;16.20;99.90
24384;DHT22;12504;52.870;8.798;2023-08-01T07:01:45;16.20;99.90
24384;DHT22;12504;52.870;8.798;2023-08-01T07:04:14;16.30;99.90
24384;DHT22;12504;52.870;8.798;2023-08-01T07:06:41;16.40;99.90
24384;DHT22;12504;52.870;8.798;2023-08-01T07:09:13;16.50;99.90
24384;DHT22;12504;52.870;8.798;2023-08-01T07:11:40;16.50;99.90
24384;DHT22;12504;52.870;8.798;2023-08-01T07:14:12;16.50;99.90
24384;DHT22;12504;52.870;8.798;2023-08-01T07:16:46;16.70;99.90
24384;DHT22;12504;52.870;8.798;2023-08-01T07:19:17;16.70;99.90
24384;DHT22;12504;52.870;8.798;2023-08-01T07:21:44;16.80;99.90
24384;DHT22;12504;52.870;8.798;2023-08-01T07:24:14;16.80;99.90
24384;DHT22;12504;52.870;8.798;2023-08-01T07:26:40;16.90;99.90
24384;DHT22;12504;52.870;8.798;2023-08-01T07:29:10;17.10;99.90
24384;DHT22;12504;52.870;8.798;2023-08-01T07:31:42;17.10;99.90
24384;DHT22;12504;52.870;8.798;2023-08-01T07:34:09;17.20;99.90
24384;DHT22;12504;52.870;8.798;2023-08-01T07:36:39;17.30;99.90
24384;DHT22;12504;52.870;8.798;2023-08-01T07:39:06;17.10;99.90
24384;DHT22;12504;52.870;8.798;2023-08-01T07:41:35;17.00;99.90
24384;DHT22;12504;52.870;8.798;2023-08-01T07:44:02;17.00;99.90
24384;DHT22;12504;52.870;8.798;2023-08-01T07:46:33;17.00;99.90
24384;DHT22;12504;52.870;8.798;2023-08-01T07:48:59;17.00;99.90
24384;DHT22;12504;52.870;8.798;2023-08-01T07:51:31;17.00;99.90
24384;DHT22;12504;52.870;8.798;2023-08-01T07:54:00;17.00;99.90
24384;DHT22;12504;52.870;8.798;2023-08-01T07:56:26;17.00;99.90
24384;DHT22;12504;52.870;8.798;2023-08-01T07:58:55;17.00;99.90
24384;DHT22;12504;52.870;8.798;2023-08-01T08:01:23;17.00;99.90
24384;DHT22;12504;52.870;8.798;2023-08-01T08:03:49;17.00;99.90
24384;DHT22;12504;52.870;8.798;2023-08-01T08:06:17;16.80;99.90
24384;DHT22;12504;52.870;8.798;2023-08-01T08:08:48;16.70;99.90
24384;DHT22;12504;52.870;8.798;2023-08-01T08:11:14;16.70;99.90
24384;DHT22;12504;52.870;8.798;2023-08-01T08:13:43;16.70;99.90
24384;DHT22;12504;52.870;8.798;2023-08-01T08:16:11;16.70;99.90
24384;DHT22;12504;52.870;8.798;2023-08-01T08:18:36;16.90;99.90
24384;DHT22;12504;52.870;8.798;2023-08-01T08:21:05;17.10;99.90
24384;DHT22;12504;52.870;8.798;2023-08-01T08:23:36;17.30;99.90
24384;DHT22;12504;52.870;8.798;2023-08-01T08:26:08;17.70;99.90
24384;DHT22;12504;52.870;8.798;2023-08-01T08:28:38;17.80;99.90
24384;DHT22;12504;52.870;8.798;2023-08-01T08:31:11;17.90;99.90
24384;DHT22;12504;52.870;8.798;2023-08-01T08:33:43;17.90;99.90
24384;DHT22;12504;52.870;8.798;2023-08-01T08:36:15;17.90;99.90
24384;DHT22;12504;52.870;8.798;2023-08-01T08:38:44;18.00;99.90
24384;DHT22;12504;52.870;8.798;2023-08-01T08:41:22;18.20;99.90
24384;DHT22;12504;52.870;8.798;2023-08-01T08:43:56;18.30;99.90
24384;DHT22;12504;52.870;8.798;2023-08-01T08:46:30;18.50;99.90
24384;DHT22;12504;52.870;8.798;2023-08-01T08:49:02;18.50;99.90
24384;DHT22;12504;52.870;8.798;2023-08-01T08:51:35;18.60;99.90
24384;DHT22;12504;52.870;8.798;2023-08-01T08:54:07;18.80;99.90
24384;DHT22;12504;52.870;8.798;2023-08-01T08:56:38;18.80;99.90
24384;DHT22;12504;52.870;8.798;2023-08-01T08:59:09;18.90;99.90
24384;DHT22;12504;52.870;8.798;2023-08-01T09:01:40;18.80;99.90
24384;DHT22;12504;52.870;8.798;2023-08-01T09:04:11;18.70;99.90
24384;DHT22;12504;52.870;8.798;2023-08-01T09:06:48;18.40;99.90
24384;DHT22;12504;52.870;8.798;2023-08-01T09:09:19;18.40;99.90
24384;DHT22;12504;52.870;8.798;2023-08-01T09:11:51;18.50;99.90
24384;DHT22;12504;52.870;8.798;2023-08-01T09:14:24;18.70;99.90
24384;DHT22;12504;52.870;8.798;2023-08-01T09:17:06;18.90;99.90
24384;DHT22;12504;52.870;8.798;2023-08-01T09:19:35;19.00;99.90
24384;DHT22;12504;52.870;8.798;2023-08-01T09:22:12;18.90;99.90
24384;DHT22;12504;52.870;8.798;2023-08-01T09:24:52;18.60;99.90
24384;DHT22;12504;52.870;8.798;2023-08-01T09:27:32;18.30;99.90
24384;DHT22;12504;52.870;8.798;2023-08-01T09:32:50;18.60;99.90
24384;DHT22;12504;52.870;8.798;2023-08-01T09:35:21;18.40;99.90
24384;DHT22;12504;52.870;8.798;2023-08-01T09:37:49;18.30;99.90
24384;DHT22;12504;52.870;8.798;2023-08-01T09:40:21;18.20;99.90
24384;DHT22;12504;52.870;8.798;2023-08-01T09:42:49;18.40;99.90
24384;DHT22;12504;52.870;8.798;2023-08-01T09:45:18;18.70;99.90
24384;DHT22;12504;52.870;8.798;2023-08-01T09:47:46;18.90;99.90
24384;DHT22;12504;52.870;8.798;2023-08-01T09:50:21;19.00;99.90
24384;DHT22;12504;52.870;8.798;2023-08-01T09:52:51;19.30;99.90
24384;DHT22;12504;52.870;8.798;2023-08-01T09:55:33;19.70;99.90
24384;DHT22;12504;52.870;8.798;2023-08-01T09:58:00;19.80;99.90
24384;DHT22;12504;52.870;8.798;2023-08-01T10:00:30;19.80;99.90
24384;DHT22;12504;52.870;8.798;2023-08-01T10:03:01;19.80;99.90
24384;DHT22;12504;52.870;8.798;2023-08-01T10:05:30;19.70;99.90
24384;DHT22;12504;52.870;8.798;2023-08-01T10:07:59;19.20;99.90
24384;DHT22;12504;52.870;8.798;2023-08-01T10:10:27;18.70;99.90
24384;DHT22;12504;52.870;8.798;2023-08-01T10:13:04;18.10;99.90
24384;DHT22;12504;52.870;8.798;2023-08-01T10:15:33;17.70;99.90
24384;DHT22;12504;52.870;8.798;2023-08-01T10:18:00;17.50;99.90
24384;DHT22;12504;52.870;8.798;2023-08-01T10:20:27;17.50;99.90
24384;DHT22;12504;52.870;8.798;2023-08-01T10:22:53;17.70;99.90
24384;DHT22;12504;52.870;8.798;2023-08-01T10:25:22;18.00;99.90
24384;DHT22;12504;52.870;8.798;2023-08-01T10:28:03;18.40;99.90
24384;DHT22;12504;52.870;8.798;2023-08-01T10:30:30;18.80;99.90
24384;DHT22;12504;52.870;8.798;2023-08-01T10:33:00;19.10;99.90
24384;DHT22;12504;52.870;8.798;2023-08-01T10:38:12;19.40;99.90
24384;DHT22;12504;52.870;8.798;2023-08-01T10:40:40;19.40;99.90
24384;DHT22;12504;52.870;8.798;2023-08-01T10:43:22;19.60;99.90
24384;DHT22;12504;52.870;8.798;2023-08-01T10:46:03;19.60;99.90
24384;DHT22;12504;52.870;8.798;2023-08-01T10:48:31;19.70;99.90
24384;DHT22;12504;52.870;8.798;2023-08-01T10:51:01;19.40;99.90
24384;DHT22;12504;52.870;8.798;2023-08-01T10:53:38;19.30;99.90
24384;DHT22;12504;52.870;8.798;2023-08-01T10:56:07;19.10;99.90
24384;DHT22;12504;52.870;8.798;2023-08-01T10:58:37;19.10;99.90
24384;DHT22;12504;52.870;8.798;2023-08-01T11:01:03;19.20;99.90
24384;DHT22;12504;52.870;8.798;2023-08-01T11:03:39;19.10;99.90
24384;DHT22;12504;52.870;8.798;2023-08-01T11:06:10;18.90;99.90
24384;DHT22;12504;52.870;8.798;2023-08-01T11:08:40;18.90;99.90
24384;DHT22;12504;52.870;8.798;2023-08-01T11:11:10;18.90;99.90
24384;DHT22;12504;52.870;8.798;2023-08-01T11:13:37;19.00;99.90
24384;DHT22;12504;52.870;8.798;2023-08-01T11:16:03;19.40;99.90
24384;DHT22;12504;52.870;8.798;2023-08-01T11:18:30;19.60;99.90
24384;DHT22;12504;52.870;8.798;2023-08-01T11:21:05;20.40;99.90
24384;DHT22;12504;52.870;8.798;2023-08-01T11:23:30;20.90;99.90
24384;DHT22;12504;52.870;8.798;2023-08-01T11:25:57;21.20;99.90
24384;DHT22;12504;52.870;8.798;2023-08-01T11:28:24;21.60;99.90
24384;DHT22;12504;52.870;8.798;2023-08-01T11:30:57;21.90;99.90
24384;DHT22;12504;52.870;8.798;2023-08-01T11:33:25;21.90;99.90
24384;DHT22;12504;52.870;8.798;2023-08-01T11:38:34;21.30;99.90
24384;DHT22;12504;52.870;8.798;2023-08-01T11:41:03;20.40;99.90
24384;DHT22;12504;52.870;8.798;2023-08-01T11:43:41;19.80;99.90
24384;DHT22;12504;52.870;8.798;2023-08-01T11:46:07;19.20;99.90
24384;DHT22;12504;52.870;8.798;2023-08-01T11:48:34;18.90;99.90
24384;DHT22;12504;52.870;8.798;2023-08-01T11:51:01;18.80;99.90
24384;DHT22;12504;52.870;8.798;2023-08-01T11:53:27;18.60;99.90
24384;DHT22;12504;52.870;8.798;2023-08-01T11:55:54;18.90;99.90
24384;DHT22;12504;52.870;8.798;2023-08-01T11:58:35;19.40;99.90
24384;DHT22;12504;52.870;8.798;2023-08-01T12:01:12;20.80;99.90
24384;DHT22;12504;52.870;8.798;2023-08-01T12:03:49;22.00;99.90
24384;DHT22;12504;52.870;8.798;2023-08-01T12:06:16;22.40;99.90
24384;DHT22;12504;52.870;8.798;2023-08-01T12:08:44;22.50;99.90
24384;DHT22;12504;52.870;8.798;2023-08-01T12:11:25;22.00;99.90
24384;DHT22;12504;52.870;8.798;2023-08-01T12:14:08;22.10;99.90
24384;DHT22;12504;52.870;8.798;2023-08-01T12:16:46;22.10;99.90
24384;DHT22;12504;52.870;8.798;2023-08-01T12:19:19;22.60;99.90
24384;DHT22;12504;52.870;8.798;2023-08-01T12:21:45;23.30;99.90
24384;DHT22;12504;52.870;8.798;2023-08-01T12:24:11;23.10;92.00
24384;DHT22;12504;52.870;8.798;2023-08-01T12:26:37;23.60;77.60
24384;DHT22;12504;52.870;8.798;2023-08-01T12:29:02;23.10;81.60
24384;DHT22;12504;52.870;8.798;2023-08-01T12:31:28;22.60;99.90
24384;DHT22;12504;52.870;8.798;2023-08-01T12:33:54;22.10;99.90
24384;DHT22;12504;52.870;8.798;2023-08-01T12:36:22;21.40;99.90
24384;DHT22;12504;52.870;8.798;2023-08-01T12:38:48;21.00;99.90
24384;DHT22;12504;52.870;8.798;2023-08-01T12:41:13;21.10;99.90
24384;DHT22;12504;52.870;8.798;2023-08-01T12:43:39;20.70;99.90
24384;DHT22;12504;52.870;8.798;2023-08-01T12:46:05;20.20;99.90
24384;DHT22;12504;52.870;8.798;2023-08-01T12:48:30;20.20;99.90
24384;DHT22;12504;52.870;8.798;2023-08-01T12:50:56;20.70;99.90
24384;DHT22;12504;52.870;8.798;2023-08-01T12:53:22;20.90;99.90
24384;DHT22;12504;52.870;8.798;2023-08-01T12:55:51;20.70;99.90
24384;DHT22;12504;52.870;8.798;2023-08-01T12:58:17;20.10;99.90
24384;DHT22;12504;52.870;8.798;2023-08-01T13:00:44;19.70;99.90
24384;DHT22;12504;52.870;8.798;2023-08-01T13:03:10;19.40;99.90
24384;DHT22;12504;52.870;8.798;2023-08-01T13:05:37;18.90;99.90
24384;DHT22;12504;52.870;8.798;2023-08-01T13:08:04;18.50;99.90
24384;DHT22;12504;52.870;8.798;2023-08-01T13:10:34;18.30;99.90
24384;DHT22;12504;52.870;8.798;2023-08-01T13:13:00;18.00;99.90
24384;DHT22;12504;52.870;8.798;2023-08-01T13:15:26;17.80;99.90
24384;DHT22;12504;52.870;8.798;2023-08-01T13:17:52;17.70;99.90
24384;DHT22;12504;52.870;8.798;2023-08-01T13:20:18;17.30;99.90
24384;DHT22;12504;52.870;8.798;2023-08-01T13:22:46;17.30;99.90
24384;DHT22;12504;52.870;8.798;2023-08-01T13:25:13;17.50;99.90
24384;DHT22;12504;52.870;8.798;2023-08-01T13:27:39;17.90;99.90
24384;DHT22;12504;52.870;8.798;2023-08-01T13:30:05;18.50;99.90
24384;DHT22;12504;52.870;8.798;2023-08-01T13:32:31;19.00;99.90
24384;DHT22;12504;52.870;8.798;2023-08-01T13:34:56;19.60;99.90
24384;DHT22;12504;52.870;8.798;2023-08-01T13:37:22;19.70;99.90
24384;DHT22;12504;52.870;8.798;2023-08-01T13:39:47;20.20;99.90
24384;DHT22;12504;52.870;8.798;2023-08-01T13:42:13;20.90;99.90
24384;DHT22;12504;52.870;8.798;2023-08-01T13:44:40;21.50;99.90
24384;DHT22;12504;52.870;8.798;2023-08-01T13:47:06;21.50;99.90
24384;DHT22;12504;52.870;8.798;2023-08-01T13:49:31;21.50;99.90
24384;DHT22;12504;52.870;8.798;2023-08-01T13:51:58;21.20;99.90
24384;DHT22;12504;52.870;8.798;2023-08-01T13:54:24;20.70;99.90
24384;DHT22;12504;52.870;8.798;2023-08-01T13:56:50;20.40;99.90
24384;DHT22;12504;52.870;8.798;2023-08-01T13:59:15;20.20;99.90
24384;DHT22;12504;52.870;8.798;2023-08-01T14:01:41;20.00;99.90
24384;DHT22;12504;52.870;8.798;2023-08-01T14:04:07;19.80;99.90
24384;DHT22;12504;52.870;8.798;2023-08-01T14:06:33;19.60;99.90
24384;DHT22;12504;52.870;8.798;2023-08-01T14:08:59;19.20;99.90
24384;DHT22;12504;52.870;8.798;2023-08-01T14:11:24;18.90;99.90
24384;DHT22;12504;52.870;8.798;2023-08-01T14:13:50;18.60;99.90
24384;DHT22;12504;52.870;8.798;2023-08-01T14:16:16;18.20;99.90
24384;DHT22;12504;52.870;8.798;2023-08-01T14:18:42;17.90;99.90
24384;DHT22;12504;52.870;8.798;2023-08-01T14:21:10;18.00;99.90
24384;DHT22;12504;52.870;8.798;2023-08-01T14:23:35;18.10;99.90
24384;DHT22;12504;52.870;8.798;2023-08-01T14:26:03;18.10;99.90
24384;DHT22;12504;52.870;8.798;2023-08-01T14:28:33;18.30;99.90
24384;DHT22;12504;52.870;8.798;2023-08-01T14:31:03;18.80;99.90
24384;DHT22;12504;52.870;8.798;2023-08-01T14:33:29;19.20;99.90
24384;DHT22;12504;52.870;8.798;2023-08-01T14:35:55;19.50;99.90
24384;DHT22;12504;52.870;8.798;2023-08-01T14:38:22;20.00;99.90
24384;DHT22;12504;52.870;8.798;2023-08-01T14:40:48;20.40;99.90
24384;DHT22;12504;52.870;8.798;2023-08-01T14:43:14;20.20;99.90
24384;DHT22;12504;52.870;8.798;2023-08-01T14:45:40;20.10;99.90
24384;DHT22;12504;52.870;8.798;2023-08-01T14:48:07;19.80;99.90
24384;DHT22;12504;52.870;8.798;2023-08-01T14:50:33;19.90;99.90
24384;DHT22;12504;52.870;8.798;2023-08-01T14:53:00;20.10;99.90
24384;DHT22;12504;52.870;8.798;2023-08-01T14:55:27;20.10;99.90
24384;DHT22;12504;52.870;8.798;2023-08-01T14:57:54;20.20;99.90
24384;DHT22;12504;52.870;8.798;2023-08-01T15:00:19;20.10;99.90
24384;DHT22;12504;52.870;8.798;2023-08-01T15:02:45;20.00;99.90
24384;DHT22;12504;52.870;8.798;2023-08-01T15:05:12;20.20;99.90
24384;DHT22;12504;52.870;8.798;2023-08-01T15:07:37;20.60;99.90
24384;DHT22;12504;52.870;8.798;2023-08-01T15:10:03;21.20;99.90
24384;DHT22;12504;52.870;8.798;2023-08-01T15:12:30;21.80;99.90
24384;DHT22;12504;52.870;8.798;2023-08-01T15:14:56;21.90;99.90
24384;DHT22;12504;52.870;8.798;2023-08-01T15:17:22;21.50;99.90
24384;DHT22;12504;52.870;8.798;2023-08-01T15:19:49;21.10;99.90
24384;DHT22;12504;52.870;8.798;2023-08-01T15:22:15;20.60;99.90
24384;DHT22;12504;52.870;8.798;2023-08-01T15:24:41;20.00;99.90
24384;DHT22;12504;52.870;8.798;2023-08-01T15:27:07;19.30;99.90
24384;DHT22;12504;52.870;8.798;2023-08-01T15:29:33;18.60;99.90
24384;DHT22;12504;52.870;8.798;2023-08-01T15:31:58;18.30;99.90
24384;DHT22;12504;52.870;8.798;2023-08-01T15:34:24;18.00;99.90
24384;DHT22;12504;52.870;8.798;2023-08-01T15:36:49;17.80;99.90
24384;DHT22;12504;52.870;8.798;2023-08-01T15:39:15;17.70;99.90
24384;DHT22;12504;52.870;8.798;2023-08-01T15:41:42;17.70;99.90
24384;DHT22;12504;52.870;8.798;2023-08-01T15:44:07;17.80;99.90
24384;DHT22;12504;52.870;8.798;2023-08-01T15:46:33;17.80;99.90
24384;DHT22;12504;52.870;8.798;2023-08-01T15:49:03;18.20;99.90
24384;DHT22;12504;52.870;8.798;2023-08-01T15:51:30;18.90;99.90